sensor_id;sensor_type;location;lat;lon;timestamp;pressure;altitude;pressure_sealevel;temperature;humidity
58471;BME280;44258;51.288;12.068;2023-03-01T00:00:16;101939.13;;;-0.16;55.28
58471;BME280;44258;51.288;12.068;2023-03-01T00:03:04;101939.13;;;-0.13;55.30
58471;BME280;44258;51.288;12.068;2023-03-01T00:05:51;101933.88;;;-0.11;55.65
58471;BME280;44258;51.288;12.068;2023-03-01T00:08:37;101924.16;;;-0.14;55.51
58471;BME280;44258;51.288;12.068;2023-03-01T00:11:26;101935.56;;;-0.16;55.53
58471;BME280;44258;51.288;12.068;2023-03-01T00:14:13;101932.00;;;-0.20;55.61
58471;BME280;44258;51.288;12.068;2023-03-01T00:17:01;101932.88;;;-0.19;55.87
58471;BME280;44258;51.288;12.068;2023-03-01T00:19:49;101929.34;;;-0.21;56.00
58471;BME280;44258;51.288;12.068;2023-03-01T00:22:36;101928.44;;;-0.20;55.95
58471;BME280;44258;51.288;12.068;2023-03-01T00:25:23;101926.72;;;-0.18;55.52
58471;BME280;44258;51.288;12.068;2023-03-01T00:28:10;101921.44;;;-0.20;56.09
58471;BME280;44258;51.288;12.068;2023-03-01T00:31:02;101916.88;;;-0.29;55.98
58471;BME280;44258;51.288;12.068;2023-03-01T00:33:52;101918.66;;;-0.27;56.06
58471;BME280;44258;51.288;12.068;2023-03-01T00:36:44;101924.00;;;-0.24;56.40
58471;BME280;44258;51.288;12.068;2023-03-01T00:39:32;101920.53;;;-0.22;56.50
58471;BME280;44258;51.288;12.068;2023-03-01T00:42:19;101914.44;;;-0.15;56.16
58471;BME280;44258;51.288;12.068;2023-03-01T00:45:08;101912.72;;;-0.11;56.35
58471;BME280;44258;51.288;12.068;2023-03-01T00:47:55;101918.88;;;-0.14;55.94
58471;BME280;44258;51.288;12.068;2023-03-01T00:50:42;101907.56;;;-0.00;56.15
58471;BME280;44258;51.288;12.068;2023-03-01T00:53:30;101900.28;;;-0.20;55.59
58471;BME280;44258;51.288;12.068;2023-03-01T00:56:17;101908.88;;;-0.35;56.21
58471;BME280;44258;51.288;12.068;2023-03-01T00:59:04;101900.03;;;-0.38;56.30
58471;BME280;44258;51.288;12.068;2023-03-01T01:01:51;101893.84;;;-0.39;56.18
58471;BME280;44258;51.288;12.068;2023-03-01T01:04:38;101890.28;;;-0.42;56.83
58471;BME280;44258;51.288;12.068;2023-03-01T01:07:24;101891.25;;;-0.36;56.27
58471;BME280;44258;51.288;12.068;2023-03-01T01:10:12;101889.47;;;-0.35;56.17
58471;BME280;44258;51.288;12.068;2023-03-01T01:13:02;101880.69;;;-0.33;56.00
58471;BME280;44258;51.288;12.068;2023-03-01T01:15:49;101877.97;;;-0.40;56.14
58471;BME280;44258;51.288;12.068;2023-03-01T01:18:36;101885.06;;;-0.35;56.15
58471;BME280;44258;51.288;12.068;2023-03-01T01:21:24;101891.28;;;-0.33;56.10
58471;BME280;44258;51.288;12.068;2023-03-01T01:24:11;101886.91;;;-0.32;55.63
58471;BME280;44258;51.288;12.068;2023-03-01T01:26:59;101881.63;;;-0.32;55.72
58471;BME280;44258;51.288;12.068;2023-03-01T01:29:46;101881.50;;;-0.40;55.74
58471;BME280;44258;51.288;12.068;2023-03-01T01:32:33;101875.41;;;-0.33;55.91
58471;BME280;44258;51.288;12.068;2023-03-01T01:35:19;101871.63;;;-0.52;55.49
58471;BME280;44258;51.288;12.068;2023-03-01T01:38:06;101862.69;;;-0.61;56.46
58471;BME280;44258;51.288;12.068;2023-03-01T01:40:56;101860.16;;;-0.54;56.17
58471;BME280;44258;51.288;12.068;2023-03-01T01:43:47;101861.16;;;-0.45;56.04
58471;BME280;44258;51.288;12.068;2023-03-01T01:46:36;101860.31;;;-0.41;55.77
58471;BME280;44258;51.288;12.068;2023-03-01T01:49:28;101852.25;;;-0.52;55.84
58471;BME280;44258;51.288;12.068;2023-03-01T01:52:18;101845.16;;;-0.55;55.87
58471;BME280;44258;51.288;12.068;2023-03-01T01:55:08;101853.97;;;-0.56;56.12
58471;BME280;44258;51.288;12.068;2023-03-01T01:58:02;101845.91;;;-0.65;56.25
58471;BME280;44258;51.288;12.068;2023-03-01T02:00:50;101842.41;;;-0.64;56.03
58471;BME280;44258;51.288;12.068;2023-03-01T02:03:39;101833.66;;;-0.60;55.85
58471;BME280;44258;51.288;12.068;2023-03-01T02:06:29;101840.66;;;-0.62;55.38
58471;BME280;44258;51.288;12.068;2023-03-01T02:09:20;101845.97;;;-0.60;55.54
58471;BME280;44258;51.288;12.068;2023-03-01T02:12:12;101836.16;;;-0.69;55.74
58471;BME280;44258;51.288;12.068;2023-03-01T02:15:06;101840.44;;;-0.79;56.24
58471;BME280;44258;51.288;12.068;2023-03-01T02:17:56;101841.09;;;-0.92;56.43
58471;BME280;44258;51.288;12.068;2023-03-01T02:20:50;101840.22;;;-0.93;56.20
58471;BME280;44258;51.288;12.068;2023-03-01T02:23:42;101832.41;;;-0.83;55.58
58471;BME280;44258;51.288;12.068;2023-03-01T02:26:31;101827.44;;;-0.63;56.05
58471;BME280;44258;51.288;12.068;2023-03-01T02:29:26;101832.63;;;-0.70;55.01
58471;BME280;44258;51.288;12.068;2023-03-01T02:32:15;101832.59;;;-0.73;55.70
58471;BME280;44258;51.288;12.068;2023-03-01T02:35:09;101830.75;;;-0.78;55.36
58471;BME280;44258;51.288;12.068;2023-03-01T02:38:01;101837.50;;;-0.97;55.91
58471;BME280;44258;51.288;12.068;2023-03-01T02:40:52;101833.13;;;-0.97;56.29
58471;BME280;44258;51.288;12.068;2023-03-01T02:43:41;101832.31;;;-0.90;55.70
58471;BME280;44258;51.288;12.068;2023-03-01T02:46:29;101830.44;;;-0.98;56.13
58471;BME280;44258;51.288;12.068;2023-03-01T02:49:20;101837.66;;;-0.86;55.67
58471;BME280;44258;51.288;12.068;2023-03-01T02:52:17;101835.06;;;-0.83;55.65
58471;BME280;44258;51.288;12.068;2023-03-01T02:55:10;101835.81;;;-0.92;55.25
58471;BME280;44258;51.288;12.068;2023-03-01T02:57:57;101842.84;;;-0.93;55.70
58471;BME280;44258;51.288;12.068;2023-03-01T03:00:48;101833.16;;;-0.94;55.46
58471;BME280;44258;51.288;12.068;2023-03-01T03:03:36;101829.59;;;-0.96;55.38
58471;BME280;44258;51.288;12.068;2023-03-01T03:06:23;101841.69;;;-1.10;56.16
58471;BME280;44258;51.288;12.068;2023-03-01T03:09:10;101838.31;;;-1.03;55.64
58471;BME280;44258;51.288;12.068;2023-03-01T03:11:57;101838.34;;;-1.01;55.32
58471;BME280;44258;51.288;12.068;2023-03-01T03:14:43;101843.56;;;-1.03;55.31
58471;BME280;44258;51.288;12.068;2023-03-01T03:17:30;101839.06;;;-1.10;55.74
58471;BME280;44258;51.288;12.068;2023-03-01T03:20:20;101836.53;;;-1.02;55.70
58471;BME280;44258;51.288;12.068;2023-03-01T03:23:08;101830.31;;;-1.07;55.75
58471;BME280;44258;51.288;12.068;2023-03-01T03:25:55;101834.41;;;-1.25;56.08
58471;BME280;44258;51.288;12.068;2023-03-01T03:28:42;101831.81;;;-1.23;55.75
58471;BME280;44258;51.288;12.068;2023-03-01T03:31:29;101820.31;;;-1.27;55.81
58471;BME280;44258;51.288;12.068;2023-03-01T03:34:15;101822.16;;;-1.21;56.35
58471;BME280;44258;51.288;12.068;2023-03-01T03:37:04;101811.44;;;-1.31;56.10
58471;BME280;44258;51.288;12.068;2023-03-01T03:40:12;101814.09;;;-1.31;55.70
58471;BME280;44258;51.288;12.068;2023-03-01T03:43:00;101814.94;;;-1.33;56.12
58471;BME280;44258;51.288;12.068;2023-03-01T03:45:49;101812.16;;;-1.41;56.80
58471;BME280;44258;51.288;12.068;2023-03-01T03:48:38;101809.41;;;-1.47;56.26
58471;BME280;44258;51.288;12.068;2023-03-01T03:51:25;101809.38;;;-1.50;56.50
58471;BME280;44258;51.288;12.068;2023-03-01T03:54:13;101798.00;;;-1.46;56.82
58471;BME280;44258;51.288;12.068;2023-03-01T03:56:59;101794.22;;;-1.62;56.91
58471;BME280;44258;51.288;12.068;2023-03-01T03:59:46;101787.97;;;-1.67;57.25
58471;BME280;44258;51.288;12.068;2023-03-01T04:02:33;101798.28;;;-1.81;57.40
58471;BME280;44258;51.288;12.068;2023-03-01T04:05:20;101789.31;;;-1.89;58.43
58471;BME280;44258;51.288;12.068;2023-03-01T04:08:07;101808.06;;;-1.74;57.50
58471;BME280;44258;51.288;12.068;2023-03-01T04:10:59;101802.03;;;-1.68;57.00
58471;BME280;44258;51.288;12.068;2023-03-01T04:14:06;101795.00;;;-1.67;57.42
58471;BME280;44258;51.288;12.068;2023-03-01T04:16:53;101796.84;;;-1.62;57.40
58471;BME280;44258;51.288;12.068;2023-03-01T04:19:40;101796.94;;;-1.57;56.69
58471;BME280;44258;51.288;12.068;2023-03-01T04:22:29;101800.50;;;-1.54;56.77
58471;BME280;44258;51.288;12.068;2023-03-01T04:25:17;101788.16;;;-1.55;56.62
58471;BME280;44258;51.288;12.068;2023-03-01T04:28:06;101786.38;;;-1.57;56.60
58471;BME280;44258;51.288;12.068;2023-03-01T04:30:54;101788.09;;;-1.59;56.75
58471;BME280;44258;51.288;12.068;2023-03-01T04:33:43;101797.84;;;-1.55;56.77
58471;BME280;44258;51.288;12.068;2023-03-01T04:36:30;101796.97;;;-1.56;56.49
58471;BME280;44258;51.288;12.068;2023-03-01T04:39:17;101800.47;;;-1.55;56.77
58471;BME280;44258;51.288;12.068;2023-03-01T04:42:03;101793.47;;;-1.53;56.62
58471;BME280;44258;51.288;12.068;2023-03-01T04:44:52;101794.25;;;-1.59;57.02
58471;BME280;44258;51.288;12.068;2023-03-01T04:47:39;101788.13;;;-1.58;56.82
58471;BME280;44258;51.288;12.068;2023-03-01T04:50:26;101785.53;;;-1.56;56.25
58471;BME280;44258;51.288;12.068;2023-03-01T04:53:13;101788.16;;;-1.56;56.35
58471;BME280;44258;51.288;12.068;2023-03-01T04:56:00;101794.03;;;-1.73;56.47
58471;BME280;44258;51.288;12.068;2023-03-01T04:58:46;101802.59;;;-1.84;57.00
58471;BME280;44258;51.288;12.068;2023-03-01T05:01:35;101796.50;;;-1.82;56.77
58471;BME280;44258;51.288;12.068;2023-03-01T05:04:23;101796.59;;;-1.76;56.52
58471;BME280;44258;51.288;12.068;2023-03-01T05:07:09;101802.66;;;-1.81;56.64
58471;BME280;44258;51.288;12.068;2023-03-01T05:09:58;101804.44;;;-1.80;56.36
58471;BME280;44258;51.288;12.068;2023-03-01T05:12:45;101798.13;;;-1.88;57.13
58471;BME280;44258;51.288;12.068;2023-03-01T05:15:32;101794.59;;;-1.89;57.26
58471;BME280;44258;51.288;12.068;2023-03-01T05:18:20;101803.25;;;-1.96;57.48
58471;BME280;44258;51.288;12.068;2023-03-01T05:21:08;101792.88;;;-1.88;57.03
58471;BME280;44258;51.288;12.068;2023-03-01T05:23:55;101797.28;;;-1.86;56.84
58471;BME280;44258;51.288;12.068;2023-03-01T05:26:42;101793.00;;;-1.81;57.31
58471;BME280;44258;51.288;12.068;2023-03-01T05:29:30;101791.16;;;-1.86;57.10
58471;BME280;44258;51.288;12.068;2023-03-01T05:32:20;101799.13;;;-1.82;57.19
58471;BME280;44258;51.288;12.068;2023-03-01T05:35:08;101795.03;;;-1.66;56.70
58471;BME280;44258;51.288;12.068;2023-03-01T05:37:58;101795.75;;;-1.75;56.71
58471;BME280;44258;51.288;12.068;2023-03-01T05:40:47;101793.09;;;-1.76;56.44
58471;BME280;44258;51.288;12.068;2023-03-01T05:43:34;101787.78;;;-1.78;56.72
58471;BME280;44258;51.288;12.068;2023-03-01T05:46:21;101797.38;;;-1.83;56.61
58471;BME280;44258;51.288;12.068;2023-03-01T05:49:09;101793.81;;;-1.83;56.37
58471;BME280;44258;51.288;12.068;2023-03-01T05:51:57;101788.34;;;-1.94;56.90
58471;BME280;44258;51.288;12.068;2023-03-01T05:54:44;101792.75;;;-1.93;56.40
58471;BME280;44258;51.288;12.068;2023-03-01T05:57:31;101789.19;;;-1.95;57.01
58471;BME280;44258;51.288;12.068;2023-03-01T06:00:18;101795.63;;;-1.82;56.52
58471;BME280;44258;51.288;12.068;2023-03-01T06:03:09;101804.22;;;-1.93;56.21
58471;BME280;44258;51.288;12.068;2023-03-01T06:05:56;101808.34;;;-2.07;56.18
58471;BME280;44258;51.288;12.068;2023-03-01T06:08:44;101792.41;;;-2.12;56.63
58471;BME280;44258;51.288;12.068;2023-03-01T06:11:33;101798.50;;;-2.14;56.93
58471;BME280;44258;51.288;12.068;2023-03-01T06:14:20;101807.41;;;-2.07;56.39
58471;BME280;44258;51.288;12.068;2023-03-01T06:17:06;101812.75;;;-2.04;56.39
58471;BME280;44258;51.288;12.068;2023-03-01T06:19:53;101803.75;;;-2.17;56.56
58471;BME280;44258;51.288;12.068;2023-03-01T06:22:40;101808.75;;;-2.28;56.86
58471;BME280;44258;51.288;12.068;2023-03-01T06:25:28;101810.56;;;-2.27;57.65
58471;BME280;44258;51.288;12.068;2023-03-01T06:28:16;101818.31;;;-2.35;57.67
58471;BME280;44258;51.288;12.068;2023-03-01T06:31:02;101815.88;;;-2.24;57.10
58471;BME280;44258;51.288;12.068;2023-03-01T06:33:49;101820.72;;;-2.01;57.22
58471;BME280;44258;51.288;12.068;2023-03-01T06:36:36;101813.56;;;-2.08;56.83
58471;BME280;44258;51.288;12.068;2023-03-01T06:39:22;101806.41;;;-2.14;57.75
58471;BME280;44258;51.288;12.068;2023-03-01T06:42:11;101807.53;;;-2.03;57.38
58471;BME280;44258;51.288;12.068;2023-03-01T06:44:57;101807.75;;;-1.89;57.18
58471;BME280;44258;51.288;12.068;2023-03-01T06:47:44;101803.41;;;-1.87;56.53
58471;BME280;44258;51.288;12.068;2023-03-01T06:50:31;101802.50;;;-1.89;57.44
58471;BME280;44258;51.288;12.068;2023-03-01T06:53:18;101804.50;;;-1.76;58.11
58471;BME280;44258;51.288;12.068;2023-03-01T06:56:06;101801.19;;;-1.65;56.95
58471;BME280;44258;51.288;12.068;2023-03-01T06:58:54;101801.47;;;-1.50;57.31
58471;BME280;44258;51.288;12.068;2023-03-01T07:01:40;101804.38;;;-1.33;56.81
58471;BME280;44258;51.288;12.068;2023-03-01T07:04:27;101804.69;;;-1.13;57.09
58471;BME280;44258;51.288;12.068;2023-03-01T07:07:16;101806.72;;;-0.97;57.23
58471;BME280;44258;51.288;12.068;2023-03-01T07:10:04;101805.19;;;-0.79;57.18
58471;BME280;44258;51.288;12.068;2023-03-01T07:12:54;101803.56;;;-0.70;56.73
58471;BME280;44258;51.288;12.068;2023-03-01T07:15:42;101799.13;;;-0.74;57.17
58471;BME280;44258;51.288;12.068;2023-03-01T07:18:29;101806.34;;;-0.60;56.89
58471;BME280;44258;51.288;12.068;2023-03-01T07:21:15;101801.31;;;-0.42;57.51
58471;BME280;44258;51.288;12.068;2023-03-01T07:24:02;101799.16;;;-0.00;56.47
58471;BME280;44258;51.288;12.068;2023-03-01T07:26:51;101803.66;;;0.10;56.21
58471;BME280;44258;51.288;12.068;2023-03-01T07:29:38;101797.66;;;0.23;56.74
58471;BME280;44258;51.288;12.068;2023-03-01T07:32:29;101795.66;;;0.01;56.16
58471;BME280;44258;51.288;12.068;2023-03-01T07:35:16;101792.69;;;-0.27;57.06
58471;BME280;44258;51.288;12.068;2023-03-01T07:38:03;101790.38;;;0.01;56.60
58471;BME280;44258;51.288;12.068;2023-03-01T07:40:49;101793.09;;;0.10;55.93
58471;BME280;44258;51.288;12.068;2023-03-01T07:43:36;101785.19;;;0.13;56.29
58471;BME280;44258;51.288;12.068;2023-03-01T07:46:23;101784.44;;;0.26;55.84
58471;BME280;44258;51.288;12.068;2023-03-01T07:49:11;101781.97;;;0.45;56.38
58471;BME280;44258;51.288;12.068;2023-03-01T07:51:58;101782.91;;;0.51;55.93
58471;BME280;44258;51.288;12.068;2023-03-01T07:54:45;101789.28;;;0.77;55.93
58471;BME280;44258;51.288;12.068;2023-03-01T07:57:31;101792.81;;;-0.15;57.47
58471;BME280;44258;51.288;12.068;2023-03-01T08:00:19;101787.25;;;0.45;56.60
58471;BME280;44258;51.288;12.068;2023-03-01T08:03:06;101786.75;;;0.94;56.03
58471;BME280;44258;51.288;12.068;2023-03-01T08:05:54;101788.31;;;0.65;55.98
58471;BME280;44258;51.288;12.068;2023-03-01T08:08:40;101795.06;;;0.33;56.71
58471;BME280;44258;51.288;12.068;2023-03-01T08:11:27;101778.63;;;0.66;56.71
58471;BME280;44258;51.288;12.068;2023-03-01T08:14:14;101786.94;;;0.11;57.88
58471;BME280;44258;51.288;12.068;2023-03-01T08:17:01;101782.88;;;0.48;57.46
58471;BME280;44258;51.288;12.068;2023-03-01T08:19:48;101772.59;;;0.85;56.91
58471;BME280;44258;51.288;12.068;2023-03-01T08:22:39;101782.09;;;0.59;57.33
58471;BME280;44258;51.288;12.068;2023-03-01T08:25:26;101779.56;;;0.74;56.76
58471;BME280;44258;51.288;12.068;2023-03-01T08:28:12;101770.09;;;1.08;55.73
58471;BME280;44258;51.288;12.068;2023-03-01T08:30:59;101771.81;;;1.00;55.92
58471;BME280;44258;51.288;12.068;2023-03-01T08:33:47;101772.75;;;1.07;56.33
58471;BME280;44258;51.288;12.068;2023-03-01T08:36:38;101771.63;;;0.76;57.22
58471;BME280;44258;51.288;12.068;2023-03-01T08:39:26;101765.94;;;1.55;55.84
58471;BME280;44258;51.288;12.068;2023-03-01T08:42:13;101763.09;;;1.17;55.95
58471;BME280;44258;51.288;12.068;2023-03-01T08:45:00;101770.34;;;1.58;55.64
58471;BME280;44258;51.288;12.068;2023-03-01T08:47:47;101771.09;;;1.30;55.31
58471;BME280;44258;51.288;12.068;2023-03-01T08:50:33;101765.97;;;1.69;55.63
58471;BME280;44258;51.288;12.068;2023-03-01T08:53:23;101760.63;;;1.54;55.89
58471;BME280;44258;51.288;12.068;2023-03-01T08:56:11;101756.19;;;1.54;56.43
58471;BME280;44258;51.288;12.068;2023-03-01T08:58:59;101764.78;;;1.05;56.55
58471;BME280;44258;51.288;12.068;2023-03-01T09:01:45;101739.34;;;1.38;56.38
58471;BME280;44258;51.288;12.068;2023-03-01T09:04:32;101760.75;;;1.97;55.05
58471;BME280;44258;51.288;12.068;2023-03-01T09:07:19;101743.09;;;2.19;54.21
58471;BME280;44258;51.288;12.068;2023-03-01T09:09:52;101744.00;;;2.31;53.65
58471;BME280;44258;51.288;12.068;2023-03-01T09:12:20;101740.41;;;2.02;54.98
58471;BME280;44258;51.288;12.068;2023-03-01T09:14:47;101744.00;;;2.36;54.29
58471;BME280;44258;51.288;12.068;2023-03-01T09:17:13;101739.59;;;2.53;54.01
58471;BME280;44258;51.288;12.068;2023-03-01T09:19:40;101743.13;;;2.57;53.89
58471;BME280;44258;51.288;12.068;2023-03-01T09:22:06;101736.91;;;2.46;54.52
58471;BME280;44258;51.288;12.068;2023-03-01T09:24:33;101732.47;;;2.80;54.00
58471;BME280;44258;51.288;12.068;2023-03-01T09:26:59;101730.72;;;2.25;54.45
58471;BME280;44258;51.288;12.068;2023-03-01T09:29:27;101732.47;;;2.03;55.03
58471;BME280;44258;51.288;12.068;2023-03-01T09:31:54;101736.81;;;1.75;55.49
58471;BME280;44258;51.288;12.068;2023-03-01T09:34:24;101737.72;;;1.82;55.31
58471;BME280;44258;51.288;12.068;2023-03-01T09:36:50;101730.69;;;2.07;54.57
58471;BME280;44258;51.288;12.068;2023-03-01T09:39:17;101730.72;;;2.24;54.37
58471;BME280;44258;51.288;12.068;2023-03-01T09:41:51;101735.13;;;2.08;54.49
58471;BME280;44258;51.288;12.068;2023-03-01T09:44:36;101721.88;;;2.29;54.15
58471;BME280;44258;51.288;12.068;2023-03-01T09:47:05;101723.66;;;2.17;54.30
58471;BME280;44258;51.288;12.068;2023-03-01T09:49:39;101718.34;;;2.43;54.27
58471;BME280;44258;51.288;12.068;2023-03-01T09:52:15;101719.19;;;1.97;55.04
58471;BME280;44258;51.288;12.068;2023-03-01T09:54:46;101720.91;;;1.75;55.84
58471;BME280;44258;51.288;12.068;2023-03-01T09:57:19;101712.16;;;2.38;54.15
58471;BME280;44258;51.288;12.068;2023-03-01T09:59:58;101711.19;;;1.69;55.16
58471;BME280;44258;51.288;12.068;2023-03-01T10:02:37;101706.81;;;1.99;54.32
58471;BME280;44258;51.288;12.068;2023-03-01T10:05:27;101713.91;;;2.57;53.59
58471;BME280;44258;51.288;12.068;2023-03-01T10:08:06;101705.88;;;2.91;52.96
58471;BME280;44258;51.288;12.068;2023-03-01T10:10:40;101713.00;;;1.90;54.99
58471;BME280;44258;51.288;12.068;2023-03-01T10:13:15;101708.56;;;2.08;53.81
58471;BME280;44258;51.288;12.068;2023-03-01T10:15:48;101705.94;;;2.48;53.13
58471;BME280;44258;51.288;12.068;2023-03-01T10:18:23;101704.19;;;2.10;51.82
58471;BME280;44258;51.288;12.068;2023-03-01T10:20:53;101705.03;;;2.01;52.47
58471;BME280;44258;51.288;12.068;2023-03-01T10:23:22;101706.84;;;2.13;52.07
58471;BME280;44258;51.288;12.068;2023-03-01T10:26:01;101703.31;;;2.51;51.29
58471;BME280;44258;51.288;12.068;2023-03-01T10:28:45;101700.63;;;1.92;52.00
58471;BME280;44258;51.288;12.068;2023-03-01T10:31:18;101697.88;;;1.49;52.99
58471;BME280;44258;51.288;12.068;2023-03-01T10:33:49;101696.03;;;1.31;53.94
58471;BME280;44258;51.288;12.068;2023-03-01T10:36:20;101699.72;;;1.93;52.39
58471;BME280;44258;51.288;12.068;2023-03-01T10:38:49;101696.22;;;2.33;51.17
58471;BME280;44258;51.288;12.068;2023-03-01T10:41:17;101693.56;;;2.15;51.07
58471;BME280;44258;51.288;12.068;2023-03-01T10:43:46;101690.91;;;2.25;50.82
58471;BME280;44258;51.288;12.068;2023-03-01T10:46:26;101696.22;;;2.01;51.01
58471;BME280;44258;51.288;12.068;2023-03-01T10:49:20;101691.66;;;1.47;51.79
58471;BME280;44258;51.288;12.068;2023-03-01T10:51:49;101682.91;;;1.91;52.05
58471;BME280;44258;51.288;12.068;2023-03-01T10:54:20;101683.84;;;2.09;50.75
58471;BME280;44258;51.288;12.068;2023-03-01T10:56:49;101684.72;;;2.39;49.58
58471;BME280;44258;51.288;12.068;2023-03-01T10:59:25;101682.03;;;2.08;50.84
58471;BME280;44258;51.288;12.068;2023-03-01T11:02:09;101679.28;;;1.43;52.08
58471;BME280;44258;51.288;12.068;2023-03-01T11:05:00;101683.78;;;1.66;51.33
58471;BME280;44258;51.288;12.068;2023-03-01T11:07:46;101673.22;;;2.01;50.62
58471;BME280;44258;51.288;12.068;2023-03-01T11:10:20;101669.63;;;1.73;51.72
58471;BME280;44258;51.288;12.068;2023-03-01T11:12:46;101665.22;;;1.81;51.11
58471;BME280;44258;51.288;12.068;2023-03-01T11:15:21;101680.19;;;1.48;51.14
58471;BME280;44258;51.288;12.068;2023-03-01T11:17:50;101668.78;;;2.03;50.92
58471;BME280;44258;51.288;12.068;2023-03-01T11:20:23;101667.91;;;2.27;50.72
58471;BME280;44258;51.288;12.068;2023-03-01T11:22:53;101669.63;;;1.75;51.63
58471;BME280;44258;51.288;12.068;2023-03-01T11:25:24;101669.63;;;1.67;51.74
58471;BME280;44258;51.288;12.068;2023-03-01T11:27:51;101669.63;;;1.79;51.51
58471;BME280;44258;51.288;12.068;2023-03-01T11:30:22;101670.56;;;1.97;51.71
58471;BME280;44258;51.288;12.068;2023-03-01T11:32:59;101660.84;;;2.29;51.50
58471;BME280;44258;51.288;12.068;2023-03-01T11:35:29;101669.66;;;2.05;51.83
58471;BME280;44258;51.288;12.068;2023-03-01T11:38:04;101659.03;;;2.59;51.54
58471;BME280;44258;51.288;12.068;2023-03-01T11:40:40;101661.66;;;2.71;51.43
58471;BME280;44258;51.288;12.068;2023-03-01T11:43:15;101656.41;;;2.25;52.58
58471;BME280;44258;51.288;12.068;2023-03-01T11:45:55;101659.06;;;1.90;54.00
58471;BME280;44258;51.288;12.068;2023-03-01T11:48:40;101659.91;;;2.75;51.87
58471;BME280;44258;51.288;12.068;2023-03-01T11:51:19;101646.63;;;2.57;52.92
58471;BME280;44258;51.288;12.068;2023-03-01T11:53:59;101645.78;;;2.39;51.68
58471;BME280;44258;51.288;12.068;2023-03-01T11:56:32;101637.84;;;2.27;51.14
58471;BME280;44258;51.288;12.068;2023-03-01T11:59:19;101635.13;;;2.58;50.79
58471;BME280;44258;51.288;12.068;2023-03-01T12:01:58;101631.59;;;2.48;51.66
58471;BME280;44258;51.288;12.068;2023-03-01T12:04:59;101629.88;;;2.01;53.07
58471;BME280;44258;51.288;12.068;2023-03-01T12:07:36;101627.22;;;2.33;51.11
58471;BME280;44258;51.288;12.068;2023-03-01T12:10:23;101621.03;;;2.17;50.14
58471;BME280;44258;51.288;12.068;2023-03-01T12:13:02;101624.53;;;2.45;51.11
58471;BME280;44258;51.288;12.068;2023-03-01T12:15:40;101620.16;;;2.29;51.27
58471;BME280;44258;51.288;12.068;2023-03-01T12:18:28;101621.88;;;2.47;51.24
58471;BME280;44258;51.288;12.068;2023-03-01T12:21:04;101619.22;;;2.48;49.26
58471;BME280;44258;51.288;12.068;2023-03-01T12:23:51;101620.09;;;2.61;50.25
58471;BME280;44258;51.288;12.068;2023-03-01T12:26:29;101620.88;;;2.86;49.39
58471;BME280;44258;51.288;12.068;2023-03-01T12:29:06;101610.41;;;2.36;48.97
58471;BME280;44258;51.288;12.068;2023-03-01T12:32:02;101606.88;;;2.17;49.75
58471;BME280;44258;51.288;12.068;2023-03-01T12:34:51;101593.56;;;2.53;49.27
58471;BME280;44258;51.288;12.068;2023-03-01T12:37:29;101597.91;;;2.70;49.77
58471;BME280;44258;51.288;12.068;2023-03-01T12:40:16;101600.59;;;2.70;49.45
58471;BME280;44258;51.288;12.068;2023-03-01T12:42:53;101588.16;;;2.77;48.38
58471;BME280;44258;51.288;12.068;2023-03-01T12:45:50;101588.16;;;2.80;49.55
58471;BME280;44258;51.288;12.068;2023-03-01T12:48:28;101591.59;;;2.97;47.34
58471;BME280;44258;51.288;12.068;2023-03-01T12:50:59;101573.03;;;2.91;46.85
58471;BME280;44258;51.288;12.068;2023-03-01T12:53:31;101582.75;;;2.95;46.96
58471;BME280;44258;51.288;12.068;2023-03-01T12:56:00;101577.38;;;3.07;45.82
58471;BME280;44258;51.288;12.068;2023-03-01T12:58:31;101580.88;;;3.19;46.39
58471;BME280;44258;51.288;12.068;2023-03-01T13:01:15;101567.66;;;3.05;46.34
58471;BME280;44258;51.288;12.068;2023-03-01T13:04:02;101561.47;;;3.06;47.78
58471;BME280;44258;51.288;12.068;2023-03-01T13:06:39;101562.38;;;3.00;48.18
58471;BME280;44258;51.288;12.068;2023-03-01T13:09:17;101567.66;;;3.08;48.21
58471;BME280;44258;51.288;12.068;2023-03-01T13:11:44;101558.72;;;3.23;47.15
58471;BME280;44258;51.288;12.068;2023-03-01T13:14:35;101563.44;;;2.56;48.57
58471;BME280;44258;51.288;12.068;2023-03-01T13:17:02;101557.94;;;3.01;47.37
58471;BME280;44258;51.288;12.068;2023-03-01T13:19:31;101558.78;;;3.10;46.85
58471;BME280;44258;51.288;12.068;2023-03-01T13:22:26;101564.94;;;3.16;45.79
58471;BME280;44258;51.288;12.068;2023-03-01T13:25:11;101571.38;;;2.71;47.21
58471;BME280;44258;51.288;12.068;2023-03-01T13:27:39;101562.28;;;3.17;46.42
58471;BME280;44258;51.288;12.068;2023-03-01T13:30:40;101561.38;;;3.23;46.17
58471;BME280;44258;51.288;12.068;2023-03-01T13:33:43;101557.66;;;3.55;45.14
58471;BME280;44258;51.288;12.068;2023-03-01T13:36:13;101561.81;;;3.86;43.92
58471;BME280;44258;51.288;12.068;2023-03-01T13:38:59;101547.81;;;3.66;45.19
58471;BME280;44258;51.288;12.068;2023-03-01T13:41:52;101546.78;;;3.84;45.36
58471;BME280;44258;51.288;12.068;2023-03-01T13:44:23;101528.91;;;4.00;44.92
58471;BME280;44258;51.288;12.068;2023-03-01T13:46:54;101542.44;;;3.72;45.40
58471;BME280;44258;51.288;12.068;2023-03-01T13:49:27;101538.63;;;4.01;45.52
58471;BME280;44258;51.288;12.068;2023-03-01T13:51:55;101534.09;;;4.09;45.87
58471;BME280;44258;51.288;12.068;2023-03-01T13:54:29;101531.72;;;3.80;45.98
58471;BME280;44258;51.288;12.068;2023-03-01T13:57:00;101530.97;;;3.62;45.31
58471;BME280;44258;51.288;12.068;2023-03-01T13:59:27;101524.53;;;3.91;45.27
58471;BME280;44258;51.288;12.068;2023-03-01T14:01:58;101519.78;;;4.22;44.82
58471;BME280;44258;51.288;12.068;2023-03-01T14:04:27;101523.59;;;3.95;45.30
58471;BME280;44258;51.288;12.068;2023-03-01T14:07:13;101512.59;;;4.29;44.38
58471;BME280;44258;51.288;12.068;2023-03-01T14:09:45;101511.81;;;4.22;43.83